地図

経路データ

SID SEASON NUMBER BASIN SUBBASIN NAME ISO_TIME NATURE LAT LON WMO_WIND WMO_PRES WMO_AGENCY TRACK_TYPE DIST2LAND LANDFALL IFLAG USA_AGENCY USA_ATCF_ID USA_LAT USA_LON USA_RECORD USA_STATUS USA_WIND USA_PRES USA_SSHS USA_R34_NE USA_R34_SE USA_R34_SW USA_R34_NW USA_R50_NE USA_R50_SE USA_R50_SW USA_R50_NW USA_R64_NE USA_R64_SE USA_R64_SW USA_R64_NW USA_POCI USA_ROCI USA_RMW USA_EYE TOKYO_LAT TOKYO_LON TOKYO_GRADE TOKYO_WIND TOKYO_PRES TOKYO_R50_DIR TOKYO_R50_LONG TOKYO_R50_SHORT TOKYO_R30_DIR TOKYO_R30_LONG TOKYO_R30_SHORT TOKYO_LAND CMA_LAT CMA_LON CMA_CAT CMA_WIND CMA_PRES HKO_LAT HKO_LON HKO_CAT HKO_WIND HKO_PRES NEWDELHI_LAT NEWDELHI_LON NEWDELHI_GRADE NEWDELHI_WIND NEWDELHI_PRES NEWDELHI_CI NEWDELHI_DP NEWDELHI_POCI REUNION_LAT REUNION_LON REUNION_TYPE REUNION_WIND REUNION_PRES REUNION_TNUM REUNION_CI REUNION_RMW REUNION_R34_NE REUNION_R34_SE REUNION_R34_SW REUNION_R34_NW REUNION_R50_NE REUNION_R50_SE REUNION_R50_SW REUNION_R50_NW REUNION_R64_NE REUNION_R64_SE REUNION_R64_SW REUNION_R64_NW BOM_LAT BOM_LON BOM_TYPE BOM_WIND BOM_PRES BOM_TNUM BOM_CI BOM_RMW BOM_R34_NE BOM_R34_SE BOM_R34_SW BOM_R34_NW BOM_R50_NE BOM_R50_SE BOM_R50_SW BOM_R50_NW BOM_R64_NE BOM_R64_SE BOM_R64_SW BOM_R64_NW BOM_ROCI BOM_POCI BOM_EYE BOM_POS_METHOD BOM_PRES_METHOD NADI_LAT NADI_LON NADI_CAT NADI_WIND NADI_PRES WELLINGTON_LAT WELLINGTON_LON WELLINGTON_WIND WELLINGTON_PRES DS824_LAT DS824_LON DS824_STAGE DS824_WIND DS824_PRES TD9636_LAT TD9636_LON TD9636_STAGE TD9636_WIND TD9636_PRES TD9635_LAT TD9635_LON TD9635_WIND TD9635_PRES TD9635_ROCI NEUMANN_LAT NEUMANN_LON NEUMANN_CLASS NEUMANN_WIND NEUMANN_PRES MLC_LAT MLC_LON MLC_CLASS MLC_WIND MLC_PRES USA_GUST BOM_GUST BOM_GUST_PER REUNION_GUST REUNION_GUST_PER USA_SEAHGT USA_SEARAD_NE USA_SEARAD_SE USA_SEARAD_SW USA_SEARAD_NW STORM_SPEED STORM_DIR
1933239N19268 1933 45 NA GM NOT_NAMED 1933-08-26 18:00:00 TS 18.9000 -92.3000 25 hurdat_atl main 33 33 O_____________ hurdat_atl AL101933 18.9000 -92.3000 TD 25 -1 3 329
1933239N19268 1933 45 NA GM NOT_NAMED 1933-08-26 21:00:00 TS 19.0400 -92.3875 main 44 44 P_____________ AL101933 19.0400 -92.3875 TD 25 -1 4 328
1933239N19268 1933 45 NA GM NOT_NAMED 1933-08-27 00:00:00 TS 19.2000 -92.5000 25 hurdat_atl main 67 67 O_____________ hurdat_atl AL101933 19.2000 -92.5000 TD 25 -1 4 325
1933239N19268 1933 45 NA GM NOT_NAMED 1933-08-27 03:00:00 TS 19.3925 -92.6500 main 89 89 P_____________ AL101933 19.3925 -92.6500 TD 25 -1 5 325
1933239N19268 1933 45 NA GM NOT_NAMED 1933-08-27 06:00:00 TS 19.6000 -92.8000 25 hurdat_atl main 112 112 O_____________ hurdat_atl AL101933 19.6000 -92.8000 TD 25 -1 5 330
1933239N19268 1933 45 NA GM NOT_NAMED 1933-08-27 09:00:00 TS 19.8000 -92.9001 main 135 135 P_____________ AL101933 19.8000 -92.9001 TD 25 -1 4 335
1933239N19268 1933 45 NA GM NOT_NAMED 1933-08-27 12:00:00 TS 20.0000 -93.0000 25 hurdat_atl main 159 159 O_____________ hurdat_atl AL101933 20.0000 -93.0000 TD 25 -1 5 330
1933239N19268 1933 45 NA GM NOT_NAMED 1933-08-27 15:00:00 TS 20.2000 -93.1500 main 183 183 P_____________ AL101933 20.2000 -93.1500 TD 25 -1 5 325
1933239N19268 1933 45 NA GM NOT_NAMED 1933-08-27 18:00:00 TS 20.4000 -93.3000 25 hurdat_atl main 210 210 O_____________ hurdat_atl AL101933 20.4000 -93.3000 TD 25 -1 5 329
1933239N19268 1933 45 NA GM NOT_NAMED 1933-08-27 21:00:00 TS 20.6075 -93.4075 main 235 235 P_____________ AL101933 20.6075 -93.4075 TD 27 -1 4 335
1933239N19268 1933 45 NA GM NOT_NAMED 1933-08-28 00:00:00 TS 20.8000 -93.5000 30 hurdat_atl main 259 259 O_____________ hurdat_atl AL101933 20.8000 -93.5000 TD 30 -1 4 334
1933239N19268 1933 45 NA GM NOT_NAMED 1933-08-28 03:00:00 TS 20.9575 -93.5926 main 284 284 P_____________ AL101933 20.9575 -93.5926 TD 30 -1 4 329
1933239N19268 1933 45 NA GM NOT_NAMED 1933-08-28 06:00:00 TS 21.1000 -93.7000 30 hurdat_atl main 298 298 O_____________ hurdat_atl AL101933 21.1000 -93.7000 TD 30 -1 4 326
1933239N19268 1933 45 NA GM NOT_NAMED 1933-08-28 09:00:00 TS 21.2498 -93.8051 main 307 300 P_____________ AL101933 21.2498 -93.8051 TD 30 -1 4 317
1933239N19268 1933 45 NA GM NOT_NAMED 1933-08-28 12:00:00 TS 21.4000 -94.0000 30 hurdat_atl main 300 282 O_____________ hurdat_atl AL101933 21.4000 -94.0000 TD 30 -1 6 300
1933239N19268 1933 45 NA GM NOT_NAMED 1933-08-28 15:00:00 TS 21.5501 -94.3550 main 281 258 P_____________ AL101933 21.5501 -94.3550 TD 32 -1 8 292
1933239N19268 1933 45 NA GM NOT_NAMED 1933-08-28 18:00:00 TS 21.7000 -94.8000 35 hurdat_atl main 258 218 O_____________ hurdat_atl AL101933 21.7000 -94.8000 TS 35 0 9 291
1933239N19268 1933 45 NA GM NOT_NAMED 1933-08-28 21:00:00 TS 21.8724 -95.2424 main 219 171 P_____________ AL101933 21.8724 -95.2424 TS 35 0 9 290
1933239N19268 1933 45 NA GM NOT_NAMED 1933-08-29 00:00:00 TS 22.0000 -95.7000 35 hurdat_atl main 171 131 O_____________ hurdat_atl AL101933 22.0000 -95.7000 TS 35 0 9 280
1933239N19268 1933 45 NA GM NOT_NAMED 1933-08-29 03:00:00 TS 22.0224 -96.1577 main 122 84 P_____________ AL101933 22.0224 -96.1577 TS 35 0 8 270
1933239N19268 1933 45 NA GM NOT_NAMED 1933-08-29 06:00:00 TS 22.0000 -96.6000 35 hurdat_atl main 84 53 O_____________ hurdat_atl AL101933 22.0000 -96.6000 TS 35 0 8 269
1933239N19268 1933 45 NA GM NOT_NAMED 1933-08-29 09:00:00 TS 22.0073 -96.9999 main 53 23 P_____________ AL101933 22.0073 -96.9999 TS 35 0 7 270
1933239N19268 1933 45 NA GM NOT_NAMED 1933-08-29 12:00:00 TS 22.0000 -97.4000 35 hurdat_atl main 23 0 O_____________ hurdat_atl AL101933 22.0000 -97.4000 TS 35 0 8 268
1933239N19268 1933 45 NA NA NOT_NAMED 1933-08-29 15:00:00 TS 21.9799 -97.8423 main 0 0 P_____________ AL101933 21.9799 -97.8423 TS 32 -1 8 263
1933239N19268 1933 45 NA NA NOT_NAMED 1933-08-29 18:00:00 TS 21.9000 -98.3000 30 hurdat_atl main 0 0 O_____________ hurdat_atl AL101933 21.9000 -98.3000 TD 30 -1 9 253
1933239N19268 1933 45 NA NA NOT_NAMED 1933-08-29 21:00:00 TS 21.7277 -98.7529 main 0 0 P_____________ AL101933 21.7277 -98.7529 TD 27 -1 9 244
1933239N19268 1933 45 NA NA NOT_NAMED 1933-08-30 00:00:00 TS 21.5000 -99.2000 25 hurdat_atl main 0 O_____________ hurdat_atl AL101933 21.5000 -99.2000 TD 25 -1 9 241

IBTrACS Databaseについて

本データベースは、米国NOAAが公開する1842年以降の世界の熱帯低気圧のベストトラックデータアーカイブInternational Best Track Archive for Climate Stewardship (IBTrACS)を、ウェブで閲覧しやすい形式に変換したものです。

最終更新日:2021-10-21